Saguache, CO

4:26 AM MDT on May 26, 2017 (GMT -0600)
Saguache

Weather History for K04V - November, 2011

Change the Weather History Date:

Monday, November 14, 2011

  Actual Average (KALS) Record (KALS)
Temperature  
Mean Temperature 36 °F -  
Max Temperature 50 °F 47 °F 65 °F (1999)
Min Temperature 21 °F 13 °F -5 °F (1940)
Degree Days  
Heating Degree Days 30    
Moisture  
Dew Point 9 °F    
Average Humidity 35    
Maximum Humidity 68    
Minimum Humidity 11    
Precipitation  
Precipitation 0.00 in - - ()
Sea Level Pressure  
Sea Level Pressure 29.89 in    
Wind  
Wind Speed 11 mph (NW)    
Max Wind Speed 26 mph    
Max Gust Speed 39 mph    
Visibility 10 miles    
Events      
Averages and records for this station are not official NWS values.
T = Trace of Precipitation, MM = Missing Value Source: NWS Daily Summary

Daily Weather History Graph

Daily Weather History Graph

Search for Another Location

Airport or City:

Trip Planner

Search our weather history database for the weather conditions in past years. The results will help you decide how hot, cold, wet, or windy it might be!

Date:

Astronomy

Nov. 14, 2011 Rise Set
Actual Time 6:44 AM MST 4:53 PM MST
Civil Twilight 6:16 AM MST 5:21 PM MST
Nautical Twilight 5:44 AM MST 5:53 PM MST
Astronomical Twilight 5:13 AM MST 6:24 PM MST
Moon 8:04 PM MST (11/14) 10:03 AM MST (11/14)
Length of Visible Light 11h 05m
Length of Day
10h 09m
Waning Gibbous, 86% of the Moon is Illuminated
Nov 14
Waning Gibbous
Nov 18
Last Quarter
Nov 24
New
Dec 2
First Quarter
Dec 10
Full

Hourly Weather History & Observations

Time (MST) Temp. Windchill Dew Point Humidity Pressure Visibility Wind Dir Wind Speed Gust Speed Precip Events Conditions
12:02 AM 35.6 °F 25.2 °F 17.6 °F 48% 29.86 in 10.0 mi NNW 18.4 mph 28.8 mph N/A   Clear
12:22 AM 35.6 °F 23.2 °F 15.8 °F 44% 29.86 in 10.0 mi NNW 26.5 mph 39.1 mph N/A   Clear
12:42 AM 35.6 °F 25.9 °F 15.8 °F 44% 29.86 in 10.0 mi NNW 16.1 mph 29.9 mph N/A   Clear
1:02 AM 33.8 °F 23.5 °F 15.8 °F 48% 29.87 in 10.0 mi NW 16.1 mph 21.9 mph N/A   Clear
1:22 AM 33.8 °F 22.8 °F 15.8 °F 48% 29.88 in 10.0 mi NW 18.4 mph 24.2 mph N/A   Clear
1:42 AM 33.8 °F 23.2 °F 14.0 °F 44% 29.88 in 10.0 mi NW 17.3 mph 21.9 mph N/A   Clear
2:21 AM 33.8 °F 25.3 °F 14.0 °F 44% 29.90 in 10.0 mi NNW 11.5 mph - N/A   Clear
3:22 AM 30.2 °F 25.4 °F 14.0 °F 51% 29.91 in 10.0 mi SSW 4.6 mph - N/A   Clear
3:42 AM 33.8 °F - 14.0 °F 44% 29.92 in 10.0 mi Calm Calm - N/A   Clear
4:02 AM 26.6 °F 22.6 °F 12.2 °F 55% 29.93 in 10.0 mi NNW 3.5 mph - N/A   Clear
4:22 AM 30.2 °F 24.3 °F 14.0 °F 51% 29.93 in 10.0 mi NW 5.8 mph - N/A   Clear
5:02 AM 24.8 °F 17.9 °F 10.4 °F 54% 29.92 in 10.0 mi NNW 5.8 mph - N/A   Clear
5:22 AM 24.8 °F 20.5 °F 12.2 °F 59% 29.92 in 10.0 mi North 3.5 mph - N/A   Clear
5:42 AM 23.0 °F - 12.2 °F 63% 29.93 in 10.0 mi Calm Calm - N/A   Clear
6:02 AM 26.6 °F - 12.2 °F 55% 29.92 in 10.0 mi Calm Calm - N/A   Clear
6:22 AM 21.2 °F 14.9 °F 10.4 °F 63% 29.91 in 10.0 mi NNE 4.6 mph - N/A   Clear
7:02 AM 21.2 °F - 12.2 °F 68% 29.92 in 10.0 mi Calm Calm - N/A   Clear
7:22 AM 24.8 °F - 12.2 °F 59% 29.93 in 10.0 mi Calm Calm - N/A   Clear
7:42 AM 26.6 °F - 14.0 °F 59% 29.93 in 10.0 mi Calm Calm - N/A   Clear
8:02 AM 30.2 °F 26.7 °F 14.0 °F 51% 29.94 in 10.0 mi WNW 3.5 mph - N/A   Clear
8:22 AM 33.8 °F 29.6 °F 15.8 °F 48% 29.94 in 10.0 mi WNW 4.6 mph - N/A   Clear
8:42 AM 33.8 °F 28.6 °F 14.0 °F 44% 29.94 in 10.0 mi NW 5.8 mph - N/A   Clear
9:01 AM 35.6 °F - 14.0 °F 41% 29.93 in 10.0 mi Calm Calm - N/A   Clear
9:22 AM 37.4 °F - 14.0 °F 38% 29.93 in 10.0 mi Calm Calm - N/A   Clear
9:41 AM 39.2 °F 35.0 °F 12.2 °F 33% 29.93 in 10.0 mi SSE 5.8 mph - N/A   Clear
10:01 AM 41.0 °F 38.0 °F 10.4 °F 29% 29.94 in 10.0 mi South 4.6 mph - N/A   Clear
10:22 AM 41.0 °F 37.1 °F 10.4 °F 29% 29.94 in 10.0 mi SSE 5.8 mph - N/A   Clear
10:41 AM 42.8 °F - 8.6 °F 25% 29.94 in 10.0 mi Calm Calm - N/A   Clear
11:02 AM 42.8 °F 38.0 °F 6.8 °F 23% 29.92 in 10.0 mi SSE 8.1 mph - N/A   Mostly Cloudy
11:42 AM 46.4 °F 40.1 °F 5.0 °F 18% 29.88 in 10.0 mi South 15.0 mph 19.6 mph N/A   Mostly Cloudy
12:22 PM 46.4 °F 42.4 °F 6.8 °F 20% 29.87 in 10.0 mi SW 8.1 mph - N/A   Overcast
12:36 PM 46.4 °F 44.3 °F 6.8 °F 20% 29.86 in 10.0 mi NW 4.6 mph - N/A   Overcast
1:02 PM 50.0 °F - 1.4 °F 14% 29.84 in 10.0 mi WNW 12.7 mph 27.6 mph N/A   Overcast
1:22 PM 50.0 °F - -2.2 °F 12% 29.83 in 10.0 mi WNW 16.1 mph 27.6 mph N/A   Scattered Clouds
1:41 PM 50.0 °F - -2.2 °F 12% 29.82 in 10.0 mi WNW 19.6 mph 27.6 mph N/A   Clear
2:02 PM 50.0 °F - -4.0 °F 11% 29.81 in 10.0 mi NW 25.3 mph 31.1 mph N/A   Clear
2:22 PM 50.0 °F - -2.2 °F 12% 29.81 in 10.0 mi NW 26.5 mph 31.1 mph N/A   Clear
2:42 PM 48.2 °F - -0.4 °F 13% 29.81 in 10.0 mi WNW 24.2 mph 33.4 mph N/A   Clear
3:02 PM 48.2 °F - 3.2 °F 16% 29.82 in 10.0 mi NNW 20.7 mph 31.1 mph N/A   Clear
3:22 PM 46.4 °F 38.5 °F 3.2 °F 17% 29.82 in 10.0 mi NNW 21.9 mph 29.9 mph N/A   Clear
3:41 PM 46.4 °F 38.7 °F 6.8 °F 20% 29.82 in 10.0 mi NW 20.7 mph 26.5 mph N/A   Clear
4:02 PM 44.6 °F 35.5 °F 5.0 °F 20% 29.82 in 10.0 mi NNW 25.3 mph 32.2 mph N/A   Clear
4:22 PM 42.8 °F 33.8 °F 5.0 °F 21% 29.83 in 10.0 mi NNW 21.9 mph 31.1 mph N/A   Clear
4:42 PM 41.0 °F 32.8 °F 5.0 °F 23% 29.84 in 10.0 mi NW 16.1 mph - N/A   Clear
5:01 PM 41.0 °F 33.5 °F 6.8 °F 24% 29.85 in 10.0 mi NNW 13.8 mph 21.9 mph N/A   Clear
5:22 PM 39.2 °F 32.5 °F 6.8 °F 26% 29.85 in 10.0 mi NNW 10.4 mph - N/A   Clear
5:42 PM 35.6 °F 29.2 °F 5.0 °F 28% 29.86 in 10.0 mi WNW 8.1 mph - N/A   Clear
6:02 PM 33.8 °F 26.4 °F 3.2 °F 28% 29.86 in 10.0 mi NNW 9.2 mph - N/A   Clear
6:22 PM 33.8 °F 27.7 °F 5.0 °F 30% 29.87 in 10.0 mi WNW 6.9 mph - N/A   Clear
6:42 PM 33.8 °F 30.8 °F 5.0 °F 30% 29.88 in 10.0 mi WSW 3.5 mph - N/A   Clear
7:01 PM 30.2 °F 23.4 °F 5.0 °F 34% 29.89 in 10.0 mi WSW 6.9 mph - N/A   Clear
7:22 PM 33.8 °F 28.6 °F 6.8 °F 32% 29.90 in 10.0 mi West 5.8 mph - N/A   Clear
7:42 PM 33.8 °F 30.8 °F 5.0 °F 30% 29.90 in 10.0 mi WNW 3.5 mph - N/A   Clear
8:02 PM 30.2 °F 26.7 °F 3.2 °F 32% 29.91 in 10.0 mi North 3.5 mph - N/A   Clear
8:22 PM 30.2 °F - 5.0 °F 34% 29.92 in 10.0 mi Calm Calm - N/A   Clear
8:42 PM 33.8 °F - 6.8 °F 32% 29.92 in 10.0 mi Calm Calm - N/A   Clear
9:02 PM 33.8 °F 30.8 °F 6.8 °F 32% 29.93 in 10.0 mi West 3.5 mph - N/A   Clear
9:22 PM 33.8 °F 29.6 °F 8.6 °F 35% 29.93 in 10.0 mi West 4.6 mph - N/A   Clear
9:42 PM 33.8 °F 27.0 °F 8.6 °F 35% 29.93 in 10.0 mi NW 8.1 mph - N/A   Clear
10:01 PM 30.2 °F 24.3 °F 8.6 °F 40% 29.94 in 10.0 mi WNW 5.8 mph - N/A   Clear
10:22 PM 33.8 °F 27.7 °F 8.6 °F 35% 29.93 in 10.0 mi WNW 6.9 mph - N/A   Clear
10:42 PM 32.0 °F - 8.6 °F 38% 29.93 in 10.0 mi Calm Calm - N/A   Clear
11:02 PM 24.8 °F 19.1 °F 10.4 °F 54% 29.95 in 10.0 mi SSE 4.6 mph - N/A   Clear
11:22 PM 24.8 °F - 10.4 °F 54% 29.95 in 10.0 mi Calm Calm - N/A   Clear
11:42 PM 23.0 °F - 8.6 °F 54% 29.95 in 10.0 mi Calm Calm - N/A   Clear